createdAt,value
2018-09-11T00:01:06.099Z,12.90
2018-09-11T00:04:10.440Z,15.57
2018-09-11T00:07:14.712Z,16.37
2018-09-11T00:10:18.965Z,13.00
2018-09-11T00:13:23.240Z,10.07
2018-09-11T00:16:27.525Z,10.73
2018-09-11T00:19:31.961Z,10.00
2018-09-11T00:22:36.258Z,10.47
2018-09-11T00:25:40.610Z,13.10
2018-09-11T00:28:44.909Z,11.23
2018-09-11T00:31:49.252Z,9.17
2018-09-11T00:34:53.564Z,12.87
2018-09-11T00:37:57.853Z,12.13
2018-09-11T00:41:02.191Z,12.93
2018-09-11T00:44:06.697Z,15.33
2018-09-11T00:47:11.383Z,7.47
2018-09-11T00:50:15.668Z,9.47
2018-09-11T00:53:20.134Z,13.03
2018-09-11T00:56:24.408Z,13.17
2018-09-11T00:59:28.722Z,14.03
2018-09-11T01:02:33.069Z,11.53
2018-09-11T01:05:37.381Z,15.17
2018-09-11T01:08:41.822Z,9.67
2018-09-11T01:11:46.129Z,15.60
2018-09-11T01:14:50.441Z,13.37
2018-09-11T01:17:54.679Z,8.87
2018-09-11T01:20:58.961Z,8.27
2018-09-11T01:24:03.316Z,11.30
2018-09-11T01:27:07.827Z,10.40
2018-09-11T01:30:12.161Z,15.87
2018-09-11T01:33:16.429Z,10.67
2018-09-11T01:36:20.684Z,12.93
2018-09-11T01:39:25.010Z,16.40
2018-09-11T01:42:29.319Z,12.40
2018-09-11T01:45:33.622Z,13.73
2018-09-11T01:48:37.964Z,14.40
2018-09-11T01:51:42.281Z,12.10
2018-09-11T01:54:46.601Z,9.93
2018-09-11T01:57:50.920Z,9.63
2018-09-11T02:00:55.208Z,12.87
2018-09-11T02:03:59.572Z,14.03
2018-09-11T02:07:03.853Z,10.23
2018-09-11T02:10:08.128Z,7.70
2018-09-11T02:13:12.416Z,17.23
2018-09-11T02:16:16.715Z,10.30
2018-09-11T02:19:20.992Z,7.03
2018-09-11T02:22:25.259Z,13.83
2018-09-11T02:25:29.502Z,7.80
2018-09-11T02:28:33.782Z,8.33
2018-09-11T02:31:38.129Z,9.70
2018-09-11T02:34:42.443Z,12.40
2018-09-11T02:37:46.785Z,15.73
2018-09-11T02:40:51.053Z,13.73
2018-09-11T02:43:55.421Z,11.63
2018-09-11T02:46:59.673Z,13.33
2018-09-11T02:50:04.020Z,13.23
2018-09-11T02:53:08.313Z,10.70
2018-09-11T02:56:12.651Z,10.00
2018-09-11T02:59:17.017Z,12.07
2018-09-11T03:02:21.266Z,10.87
2018-09-11T03:05:25.560Z,13.93
2018-09-11T03:08:29.841Z,8.73
2018-09-11T03:11:34.155Z,13.13
2018-09-11T03:14:38.456Z,8.00
2018-09-11T03:17:42.741Z,9.63
2018-09-11T03:20:46.948Z,12.20
2018-09-11T03:23:51.269Z,12.27
2018-09-11T03:26:55.508Z,16.60
2018-09-11T03:29:59.741Z,8.67
2018-09-11T03:33:04.082Z,13.47
2018-09-11T03:36:08.362Z,17.50
2018-09-11T03:39:12.764Z,16.40
2018-09-11T03:42:17.048Z,10.93
2018-09-11T03:45:21.403Z,16.53
2018-09-11T03:48:25.656Z,10.67
2018-09-11T03:51:30.006Z,14.47
2018-09-11T03:54:34.369Z,11.20
2018-09-11T03:57:38.690Z,10.80
2018-09-11T04:00:42.988Z,14.77
2018-09-11T04:03:47.290Z,16.13
2018-09-11T04:06:51.816Z,14.50
2018-09-11T04:09:56.167Z,17.10
2018-09-11T04:13:00.472Z,17.60
2018-09-11T04:16:04.789Z,16.10
2018-09-11T04:19:09.125Z,14.50
2018-09-11T04:22:13.581Z,12.67
2018-09-11T04:25:17.944Z,12.10
2018-09-11T04:28:22.269Z,14.00
2018-09-11T04:31:26.713Z,11.90
2018-09-11T04:34:30.987Z,19.37
2018-09-11T04:37:35.279Z,12.77
2018-09-11T04:40:39.589Z,18.73
2018-09-11T04:43:43.892Z,13.97
2018-09-11T04:46:48.163Z,15.37
2018-09-11T04:49:52.545Z,18.10
2018-09-11T04:52:56.832Z,17.60
2018-09-11T04:56:01.281Z,12.27
2018-09-11T04:59:05.653Z,20.90
2018-09-11T05:02:09.995Z,14.73
2018-09-11T05:05:14.309Z,15.70
2018-09-11T05:08:18.657Z,11.77
2018-09-11T05:11:22.982Z,14.50
2018-09-11T05:14:27.427Z,15.97
2018-09-11T05:17:31.691Z,16.63
2018-09-11T05:20:36.035Z,14.30
2018-09-11T05:23:40.339Z,21.90
2018-09-11T05:26:44.596Z,14.13
2018-09-11T05:29:48.892Z,13.77
2018-09-11T05:32:53.340Z,13.30
2018-09-11T05:35:57.652Z,15.60
2018-09-11T05:39:02.091Z,13.53
2018-09-11T05:42:06.652Z,16.57
2018-09-11T05:45:10.973Z,13.47
2018-09-11T05:48:15.557Z,14.10
2018-09-11T05:51:19.847Z,10.73
2018-09-11T05:54:24.192Z,12.37
2018-09-11T05:57:28.463Z,11.17
2018-09-11T06:00:32.724Z,10.27
2018-09-11T06:03:37.035Z,9.13
2018-09-11T06:06:41.309Z,10.60
2018-09-11T06:09:45.667Z,13.83
2018-09-11T06:12:49.979Z,9.27
2018-09-11T06:15:54.273Z,11.77
2018-09-11T06:18:58.634Z,13.40
2018-09-11T06:22:02.934Z,12.30
2018-09-11T06:25:07.290Z,11.63
2018-09-11T06:28:11.588Z,17.13
2018-09-11T06:31:15.988Z,14.97
2018-09-11T06:34:20.373Z,13.37
2018-09-11T06:37:24.661Z,15.73
2018-09-11T06:40:28.950Z,14.60
2018-09-11T06:43:33.314Z,14.80
2018-09-11T06:46:37.613Z,17.77
2018-09-11T06:49:41.900Z,20.27
2018-09-11T06:52:47.334Z,18.83
2018-09-11T06:55:51.612Z,20.23
2018-09-11T06:58:55.987Z,22.30
2018-09-11T07:02:00.324Z,26.17
2018-09-11T07:05:04.535Z,27.30
2018-09-11T07:08:08.894Z,26.00
2018-09-11T07:11:13.237Z,25.17
2018-09-11T07:14:17.536Z,26.30
2018-09-11T07:17:21.800Z,30.23
2018-09-11T07:20:26.214Z,31.33
2018-09-11T07:23:30.469Z,33.10
2018-09-11T07:26:34.867Z,32.63
2018-09-11T07:29:39.289Z,31.57
2018-09-11T07:32:43.571Z,24.83
2018-09-11T07:35:47.911Z,29.67
2018-09-11T07:38:52.168Z,30.27
2018-09-11T07:41:56.551Z,26.07
2018-09-11T07:45:00.876Z,25.47
2018-09-11T07:48:05.191Z,26.83
2018-09-11T07:51:09.441Z,28.87
2018-09-11T07:54:13.808Z,30.67
2018-09-11T07:57:18.114Z,24.23
2018-09-11T08:00:22.478Z,19.50
2018-09-11T08:03:26.827Z,23.27
2018-09-11T08:06:31.104Z,24.53
2018-09-11T08:09:35.419Z,22.23
2018-09-11T08:12:39.772Z,20.27
2018-09-11T08:15:44.045Z,18.87
2018-09-11T08:18:48.388Z,17.07
2018-09-11T08:21:52.734Z,20.00
2018-09-11T08:24:57.158Z,22.97
2018-09-11T08:28:01.424Z,16.80
2018-09-11T08:31:05.845Z,20.00
2018-09-11T08:34:10.221Z,17.60
2018-09-11T08:37:14.706Z,16.37
2018-09-11T08:40:19.072Z,15.90
2018-09-11T08:43:23.378Z,12.73
2018-09-11T08:46:27.704Z,13.43
2018-09-11T08:49:32.012Z,16.67
2018-09-11T08:52:36.396Z,17.93
2018-09-11T08:55:40.690Z,18.80
2018-09-11T08:58:45.003Z,19.03
2018-09-11T09:01:49.278Z,17.70
2018-09-11T09:04:53.595Z,19.07
2018-09-11T09:07:57.999Z,17.00
2018-09-11T09:11:02.373Z,17.83
2018-09-11T09:14:06.924Z,17.33
2018-09-11T09:17:11.182Z,17.60
2018-09-11T09:20:15.554Z,19.83
2018-09-11T09:23:20.096Z,20.67
2018-09-11T09:26:24.454Z,22.30
2018-09-11T09:29:28.819Z,17.43
2018-09-11T09:32:33.167Z,18.97
2018-09-11T09:35:37.440Z,17.23
2018-09-11T09:38:41.703Z,18.77
2018-09-11T09:41:46.221Z,18.03
2018-09-11T09:44:50.488Z,18.00
2018-09-11T09:47:54.761Z,18.57
2018-09-11T09:50:59.260Z,17.43
2018-09-11T09:54:03.611Z,22.67
2018-09-11T09:57:07.999Z,17.90
2018-09-11T10:00:12.353Z,17.30
2018-09-11T10:03:16.623Z,17.07
2018-09-11T10:06:20.998Z,16.87
2018-09-11T10:09:25.303Z,16.00
2018-09-11T10:12:29.640Z,16.13
2018-09-11T10:15:33.962Z,15.80
2018-09-11T10:18:38.258Z,15.43
2018-09-11T10:21:42.504Z,16.07
2018-09-11T10:24:46.900Z,11.50
2018-09-11T10:27:51.192Z,11.93
2018-09-11T10:30:55.609Z,14.53
2018-09-11T10:33:59.978Z,15.70
2018-09-11T10:37:04.335Z,14.13
2018-09-11T10:40:08.748Z,13.53
2018-09-11T10:43:13.066Z,6.77
2018-09-11T10:46:17.392Z,8.33
2018-09-11T10:49:21.681Z,5.40
2018-09-11T10:52:25.926Z,5.00
2018-09-11T10:55:30.339Z,5.03
2018-09-11T10:58:34.652Z,4.00
2018-09-11T11:01:38.971Z,4.67
2018-09-11T11:04:43.315Z,4.00
2018-09-11T11:07:47.592Z,5.30
2018-09-11T11:10:51.925Z,4.27
2018-09-11T11:13:56.268Z,4.07
2018-09-11T11:17:00.559Z,5.20
2018-09-11T11:20:04.868Z,6.20
2018-09-11T11:23:09.148Z,5.90
2018-09-11T11:26:13.445Z,3.53
2018-09-11T11:29:17.758Z,6.17
2018-09-11T11:32:22.082Z,3.73
2018-09-11T11:35:26.433Z,5.13
2018-09-11T11:38:30.764Z,5.27
2018-09-11T11:41:35.193Z,4.67
2018-09-11T11:44:39.476Z,3.40
2018-09-11T11:47:43.777Z,5.07
2018-09-11T11:50:48.132Z,5.73
2018-09-11T11:53:52.402Z,5.80
2018-09-11T11:56:56.694Z,5.40
2018-09-11T12:00:00.981Z,4.57
2018-09-11T12:03:05.234Z,4.10
2018-09-11T12:06:09.504Z,3.67
2018-09-11T12:09:13.840Z,6.63
2018-09-11T12:12:18.146Z,7.90
2018-09-11T12:15:22.497Z,6.43
2018-09-11T12:18:26.823Z,6.83
2018-09-11T12:21:31.142Z,5.73
2018-09-11T12:24:35.461Z,7.00
2018-09-11T12:27:39.769Z,4.57
2018-09-11T12:30:44.749Z,2.57
2018-09-11T12:33:49.241Z,6.47
2018-09-11T12:36:53.586Z,6.27
2018-09-11T12:39:57.884Z,6.70
2018-09-11T12:43:02.218Z,8.33
2018-09-11T12:46:06.994Z,8.30
2018-09-11T12:49:11.135Z,7.13
2018-09-11T12:52:15.500Z,8.53
2018-09-11T12:55:19.770Z,8.33
2018-09-11T12:58:24.076Z,11.47
2018-09-11T13:01:28.429Z,11.10
2018-09-11T13:04:32.757Z,9.33
2018-09-11T13:07:37.237Z,10.80
2018-09-11T13:10:41.596Z,17.40
2018-09-11T13:13:45.933Z,10.47
2018-09-11T13:16:50.528Z,14.03
2018-09-11T13:19:54.949Z,9.37
2018-09-11T13:22:59.349Z,8.13
2018-09-11T13:26:03.709Z,13.03
2018-09-11T13:29:08.046Z,11.67
2018-09-11T13:32:12.374Z,12.57
2018-09-11T13:35:16.860Z,11.80
2018-09-11T13:38:21.174Z,15.07
2018-09-11T13:41:25.799Z,12.67
2018-09-11T13:44:30.087Z,11.83
2018-09-11T13:47:34.501Z,13.93
2018-09-11T13:50:38.727Z,17.60
2018-09-11T13:53:43.003Z,19.13
2018-09-11T13:56:47.356Z,12.97
2018-09-11T13:59:51.698Z,10.10
2018-09-11T14:02:56.145Z,13.57
2018-09-11T14:06:00.547Z,11.00
2018-09-11T14:09:08.188Z,12.17
2018-09-11T14:12:12.546Z,12.27
2018-09-11T14:15:16.879Z,8.57
2018-09-11T14:18:21.270Z,4.10
2018-09-11T14:21:25.624Z,6.60
2018-09-11T14:24:29.858Z,6.33
2018-09-11T14:27:34.183Z,6.13
2018-09-11T14:30:38.537Z,9.20
2018-09-11T14:33:42.876Z,4.50
2018-09-11T14:36:47.157Z,9.73
2018-09-11T14:39:51.558Z,9.03
2018-09-11T14:42:55.860Z,9.13
2018-09-11T14:46:00.149Z,8.20
2018-09-11T14:49:04.632Z,9.47
2018-09-11T14:52:08.888Z,9.20
2018-09-11T14:55:13.243Z,8.73
2018-09-11T14:58:17.734Z,10.40
2018-09-11T15:01:22.076Z,10.30
2018-09-11T15:04:26.539Z,10.40
2018-09-11T15:07:30.942Z,10.23
2018-09-11T15:10:35.261Z,15.93
2018-09-11T15:13:39.660Z,17.00
2018-09-11T15:16:43.953Z,11.83
2018-09-11T15:19:48.486Z,13.57
2018-09-11T15:22:52.842Z,10.30
2018-09-11T15:25:57.144Z,12.47
2018-09-11T15:29:01.625Z,10.50
2018-09-11T15:32:05.929Z,13.07
2018-09-11T15:35:10.241Z,15.47
2018-09-11T15:38:14.552Z,16.33
2018-09-11T15:41:18.839Z,16.33
2018-09-11T15:44:23.126Z,14.60
2018-09-11T15:47:27.438Z,15.93
2018-09-11T15:50:31.783Z,20.43
2018-09-11T15:53:36.140Z,14.13
2018-09-11T15:56:40.391Z,12.40
2018-09-11T15:59:44.745Z,11.60
2018-09-11T16:02:49.117Z,16.20
2018-09-11T16:05:53.389Z,11.57
2018-09-11T16:08:57.741Z,15.13
2018-09-11T16:12:02.094Z,13.13
2018-09-11T16:15:06.681Z,15.67
2018-09-11T16:18:11.011Z,17.70
2018-09-11T16:21:15.321Z,15.33
2018-09-11T16:24:19.617Z,9.17
2018-09-11T16:27:23.987Z,11.43
2018-09-11T16:30:28.430Z,12.77
2018-09-11T16:33:32.781Z,10.17
2018-09-11T16:36:37.179Z,15.00
2018-09-11T16:39:41.610Z,17.03
2018-09-11T16:42:45.966Z,15.87
2018-09-11T16:45:50.272Z,14.03
2018-09-11T16:48:54.564Z,15.77
2018-09-11T16:51:58.890Z,15.87
2018-09-11T16:55:03.293Z,15.53
2018-09-11T16:58:07.599Z,10.17
2018-09-11T17:01:11.920Z,16.63
2018-09-11T17:04:16.220Z,15.37
2018-09-11T17:07:20.546Z,11.73
2018-09-11T17:10:24.859Z,13.63
2018-09-11T17:13:29.145Z,15.67
2018-09-11T17:16:33.472Z,11.93
2018-09-11T17:19:37.794Z,14.97
2018-09-11T17:22:42.124Z,17.77
2018-09-11T17:25:46.461Z,13.80
2018-09-11T17:28:50.787Z,11.30
2018-09-11T17:31:55.101Z,11.70
2018-09-11T17:34:59.420Z,12.97
2018-09-11T17:38:03.872Z,13.33
2018-09-11T17:41:08.272Z,9.03
2018-09-11T17:44:12.617Z,8.60
2018-09-11T17:47:16.997Z,7.80
2018-09-11T17:50:21.288Z,6.77
2018-09-11T17:53:25.617Z,7.87
2018-09-11T17:56:30.228Z,10.23
2018-09-11T17:59:34.546Z,8.60
2018-09-11T18:02:38.895Z,10.27
2018-09-11T18:05:43.644Z,12.20
2018-09-11T18:08:47.956Z,7.93
2018-09-11T18:11:52.305Z,11.20
2018-09-11T18:14:56.729Z,8.83
2018-09-11T18:18:01.047Z,10.90
2018-09-11T18:21:05.369Z,8.93
2018-09-11T18:24:09.624Z,12.83
2018-09-11T18:27:14.226Z,16.37
2018-09-11T18:30:18.750Z,9.70
2018-09-11T18:33:23.142Z,7.13
2018-09-11T18:36:27.672Z,11.43
2018-09-11T18:39:32.245Z,10.20
2018-09-11T18:42:36.984Z,6.47
2018-09-11T18:45:41.522Z,8.63
2018-09-11T18:48:46.301Z,10.33
2018-09-11T18:51:52.155Z,9.93
2018-09-11T18:54:57.549Z,11.83
2018-09-11T18:58:02.880Z,8.97
2018-09-11T19:01:08.626Z,10.13
2018-09-11T19:04:13.142Z,9.47
2018-09-11T19:07:17.539Z,8.97
2018-09-11T19:10:23.554Z,7.03
2018-09-11T19:13:27.966Z,13.07
2018-09-11T19:16:32.438Z,11.63
2018-09-11T19:19:36.956Z,13.17
2018-09-11T19:22:41.551Z,10.63
2018-09-11T19:25:46.436Z,12.97
2018-09-11T19:28:50.967Z,10.83
2018-09-11T19:31:55.377Z,11.97
2018-09-11T19:34:59.924Z,11.67
2018-09-11T19:38:04.320Z,10.23
2018-09-11T19:41:08.803Z,15.07
2018-09-11T19:44:13.577Z,12.83
2018-09-11T19:47:18.191Z,10.33
2018-09-11T19:50:22.786Z,13.87
2018-09-11T19:53:27.196Z,16.90
2018-09-11T19:56:31.617Z,14.50
2018-09-11T19:59:36.010Z,15.27
2018-09-11T20:02:40.719Z,17.27
2018-09-11T20:05:45.034Z,17.07
2018-09-11T20:08:49.582Z,19.30
2018-09-11T20:11:53.930Z,14.37
2018-09-11T20:14:58.355Z,14.33
2018-09-11T20:18:02.675Z,13.27
2018-09-11T20:21:06.969Z,15.47
2018-09-11T20:24:11.400Z,10.17
2018-09-11T20:27:15.750Z,17.03
2018-09-11T20:30:20.156Z,17.47
2018-09-11T20:33:25.857Z,13.97
2018-09-11T20:36:31.486Z,10.90
2018-09-11T20:39:36.631Z,15.93
2018-09-11T20:42:41.202Z,9.10
2018-09-11T20:45:45.553Z,17.27
2018-09-11T20:48:49.874Z,12.43
2018-09-11T20:51:54.203Z,14.67
2018-09-11T20:54:58.524Z,12.90
2018-09-11T20:58:04.117Z,16.53
2018-09-11T21:01:08.714Z,11.67
2018-09-11T21:04:13.011Z,14.10
2018-09-11T21:07:17.353Z,20.00
2018-09-11T21:10:21.677Z,12.43
2018-09-11T21:13:26.035Z,17.70
2018-09-11T21:16:30.364Z,15.53
2018-09-11T21:19:34.727Z,14.80
2018-09-11T21:22:39.065Z,15.37
2018-09-11T21:25:43.334Z,18.07
2018-09-11T21:28:47.649Z,16.93
2018-09-11T21:31:51.973Z,15.83
2018-09-11T21:34:56.276Z,13.63
2018-09-11T21:38:00.614Z,11.13
2018-09-11T21:41:04.935Z,14.87
2018-09-11T21:44:09.900Z,13.57
2018-09-11T21:47:15.427Z,9.93
2018-09-11T21:50:19.704Z,14.67
2018-09-11T21:53:24.068Z,9.10
2018-09-11T21:56:28.406Z,12.33
2018-09-11T21:59:32.718Z,11.17
2018-09-11T22:02:37.007Z,11.50
2018-09-11T22:05:41.418Z,10.93
2018-09-11T22:08:45.669Z,7.47
2018-09-11T22:11:50.100Z,14.67
2018-09-11T22:14:54.321Z,11.07
2018-09-11T22:17:58.682Z,18.70
2018-09-11T22:21:02.959Z,13.83
2018-09-11T22:24:07.339Z,13.83
2018-09-11T22:27:11.642Z,15.67
2018-09-11T22:30:16.590Z,10.27
2018-09-11T22:33:20.884Z,14.20
2018-09-11T22:36:25.555Z,15.50
2018-09-11T22:39:29.825Z,10.70
2018-09-11T22:42:34.221Z,11.37
2018-09-11T22:45:38.570Z,18.57
2018-09-11T22:48:42.907Z,12.20
2018-09-11T22:51:47.233Z,18.70
2018-09-11T22:54:51.497Z,14.13
2018-09-11T22:57:55.841Z,25.63
2018-09-11T23:01:00.271Z,15.40
2018-09-11T23:04:04.570Z,17.20
2018-09-11T23:07:08.830Z,20.93
2018-09-11T23:10:13.230Z,16.23
2018-09-11T23:13:17.580Z,16.47
2018-09-11T23:16:21.882Z,19.17
2018-09-11T23:19:26.212Z,21.87
2018-09-11T23:22:30.550Z,16.17
2018-09-11T23:25:34.866Z,17.10
2018-09-11T23:28:39.193Z,20.53
2018-09-11T23:31:43.515Z,16.13
2018-09-11T23:34:47.806Z,14.53
2018-09-11T23:37:52.984Z,24.77
2018-09-11T23:40:57.308Z,18.43
2018-09-11T23:44:02.637Z,16.80
2018-09-11T23:47:06.965Z,21.57
2018-09-11T23:50:11.277Z,16.60
2018-09-11T23:53:15.561Z,23.97
2018-09-11T23:56:20.818Z,15.40
2018-09-11T23:59:25.188Z,18.80
